createdAt,value
2018-11-05T00:01:57.455Z,97562.30
2018-11-05T00:07:00.768Z,97576.19
2018-11-05T00:12:04.562Z,97574.44
2018-11-05T00:17:07.789Z,97548.08
2018-11-05T00:22:11.061Z,97542.55
2018-11-05T00:27:14.305Z,97538.41
2018-11-05T00:32:17.547Z,97527.12
2018-11-05T00:37:20.714Z,97502.94
2018-11-05T00:42:23.946Z,97503.34
2018-11-05T00:47:27.178Z,97491.67
2018-11-05T00:52:30.434Z,97505.36
2018-11-05T00:57:33.654Z,97515.57
2018-11-05T01:02:37.146Z,97541.06
2018-11-05T01:07:41.338Z,97523.34
2018-11-05T01:12:44.616Z,97495.38
2018-11-05T01:17:47.847Z,97473.39
2018-11-05T01:22:51.079Z,97470.58
2018-11-05T01:27:54.283Z,97477.69
2018-11-05T01:32:57.443Z,97482.43
2018-11-05T01:38:00.774Z,97482.92
2018-11-05T01:43:04.120Z,97473.39
2018-11-05T01:48:07.630Z,97468.35
2018-11-05T01:53:10.971Z,97462.55
2018-11-05T01:58:14.202Z,97446.75
2018-11-05T02:03:17.386Z,97458.53
2018-11-05T02:08:20.650Z,97445.84
2018-11-05T02:13:23.873Z,97439.76
2018-11-05T02:18:27.014Z,97419.31
2018-11-05T02:23:30.262Z,97417.57
2018-11-05T02:28:33.482Z,97400.73
2018-11-05T02:33:36.706Z,97398.76
2018-11-05T02:38:39.909Z,97418.21
2018-11-05T02:43:43.084Z,97410.19
2018-11-05T02:48:46.336Z,97431.27
2018-11-05T02:53:49.545Z,97414.63
2018-11-05T02:58:52.838Z,97403.84
2018-11-05T03:03:56.106Z,97418.84
2018-11-05T03:08:59.330Z,97415.12
2018-11-05T03:14:02.550Z,97406.68
2018-11-05T03:19:06.265Z,97392.09
2018-11-05T03:24:09.455Z,97389.66
2018-11-05T03:29:12.643Z,97390.20
2018-11-05T03:34:15.842Z,97384.35
2018-11-05T03:39:19.046Z,97402.42
2018-11-05T03:44:22.252Z,97438.39
2018-11-05T03:49:25.435Z,97438.52
2018-11-05T03:54:28.695Z,97451.03
2018-11-05T03:59:32.574Z,97427.27
2018-11-05T04:04:35.791Z,97432.42
2018-11-05T04:09:38.981Z,97423.70
2018-11-05T04:14:42.297Z,97418.61
2018-11-05T04:19:45.486Z,97438.05
2018-11-05T04:24:48.743Z,97425.05
2018-11-05T04:29:51.914Z,97416.25
2018-11-05T04:34:55.122Z,97402.47
2018-11-05T04:39:58.322Z,97399.05
2018-11-05T04:45:01.548Z,97390.34
2018-11-05T04:50:07.503Z,97372.39
2018-11-05T04:55:10.935Z,97390.08
2018-11-05T05:00:16.391Z,97380.30
2018-11-05T05:05:19.594Z,97368.97
2018-11-05T05:10:22.829Z,97382.48
2018-11-05T05:15:26.136Z,97391.78
2018-11-05T05:20:29.399Z,97401.30
2018-11-05T05:25:32.601Z,97394.75
2018-11-05T05:30:35.771Z,97405.02
2018-11-05T05:35:38.983Z,97408.36
2018-11-05T05:40:42.270Z,97395.27
2018-11-05T05:45:45.438Z,97392.42
2018-11-05T05:50:48.683Z,97395.47
2018-11-05T05:55:51.935Z,97409.45
2018-11-05T06:00:55.330Z,97398.09
2018-11-05T06:05:58.692Z,97372.40
2018-11-05T06:11:01.891Z,97376.08
2018-11-05T06:16:05.295Z,97386.06
2018-11-05T06:21:08.455Z,97388.97
2018-11-05T06:26:11.774Z,97395.27
2018-11-05T06:31:14.995Z,97405.36
2018-11-05T06:36:30.092Z,97415.81
2018-11-05T06:41:33.534Z,97422.66
2018-11-05T06:46:36.687Z,97417.45
2018-11-05T06:51:40.071Z,97408.05
2018-11-05T06:56:43.502Z,97399.56
2018-11-05T07:01:46.718Z,97404.68
2018-11-05T07:06:49.946Z,97401.89
2018-11-05T07:11:53.189Z,97395.69
2018-11-05T07:16:56.523Z,97397.69
2018-11-05T07:22:00.074Z,97419.22
2018-11-05T07:27:03.323Z,97417.34
2018-11-05T07:32:06.642Z,97404.45
2018-11-05T07:37:09.898Z,97410.89
2018-11-05T07:42:13.123Z,97401.28
2018-11-05T07:47:16.341Z,97384.11
2018-11-05T07:52:19.587Z,97385.71
2018-11-05T07:57:22.833Z,97402.00
2018-11-05T08:02:26.111Z,97393.52
2018-11-05T08:07:29.355Z,97402.88
2018-11-05T08:12:32.632Z,97409.66
2018-11-05T08:17:36.043Z,97408.63
2018-11-05T08:22:39.308Z,97382.86
2018-11-05T08:27:42.548Z,97389.57
2018-11-05T08:32:46.364Z,97386.64
2018-11-05T08:37:50.174Z,97383.41
2018-11-05T08:42:54.198Z,97387.06
2018-11-05T08:47:57.425Z,97393.66
2018-11-05T08:53:00.655Z,97377.19
2018-11-05T08:58:03.934Z,97385.39
2018-11-05T09:03:08.189Z,97381.20
2018-11-05T09:08:11.458Z,97362.06
2018-11-05T09:13:14.695Z,97363.80
2018-11-05T09:18:17.936Z,97372.40
2018-11-05T09:23:21.212Z,97367.64
2018-11-05T09:28:24.491Z,97369.64
2018-11-05T09:33:27.749Z,97370.78
2018-11-05T09:38:30.982Z,97370.92
2018-11-05T09:43:34.191Z,97376.31
2018-11-05T09:48:37.421Z,97367.42
2018-11-05T09:53:40.939Z,97371.36
2018-11-05T09:58:44.362Z,97365.88
2018-11-05T10:03:53.987Z,97357.23
2018-11-05T10:08:57.220Z,97353.46
2018-11-05T10:14:00.421Z,97353.50
2018-11-05T10:19:03.863Z,97352.37
2018-11-05T10:24:07.148Z,97341.50
2018-11-05T10:29:10.378Z,97340.97
2018-11-05T10:34:13.663Z,97338.92
2018-11-05T10:39:16.921Z,97331.41
2018-11-05T10:44:20.106Z,97319.13
2018-11-05T10:49:23.358Z,97322.69
2018-11-05T10:54:26.641Z,97307.83
2018-11-05T10:59:29.894Z,97305.67
2018-11-05T11:04:33.996Z,97309.66
2018-11-05T11:09:37.249Z,97313.94
2018-11-05T11:14:40.429Z,97316.52
2018-11-05T11:19:43.676Z,97289.06
2018-11-05T11:24:46.898Z,97265.60
2018-11-05T11:29:50.156Z,97272.23
2018-11-05T11:34:53.426Z,97276.13
2018-11-05T11:39:56.695Z,97269.97
2018-11-05T11:45:00.110Z,97263.83
2018-11-05T11:50:03.803Z,97266.25
2018-11-05T11:55:09.802Z,97244.69
2018-11-05T12:00:16.029Z,97254.71
2018-11-05T12:05:19.509Z,97259.78
2018-11-05T12:10:23.722Z,97249.48
2018-11-05T12:15:27.012Z,97238.08
2018-11-05T12:20:30.358Z,97253.31
2018-11-05T12:25:33.493Z,97257.11
2018-11-05T12:30:36.715Z,97252.65
2018-11-05T12:35:39.947Z,97247.09
2018-11-05T12:40:43.187Z,97236.47
2018-11-05T12:45:46.430Z,97230.18
2018-11-05T12:50:49.870Z,97219.33
2018-11-05T12:55:53.064Z,97218.61
2018-11-05T13:00:56.332Z,97209.72
2018-11-05T13:05:59.662Z,97211.30
2018-11-05T13:11:02.907Z,97193.55
2018-11-05T13:16:06.161Z,97197.49
2018-11-05T13:21:09.406Z,97194.94
2018-11-05T13:26:13.301Z,97179.20
2018-11-05T13:31:16.531Z,97172.48
2018-11-05T13:36:19.772Z,97172.20
2018-11-05T13:41:23.075Z,97159.72
2018-11-05T13:46:26.567Z,97160.74
2018-11-05T13:51:29.771Z,97158.14
2018-11-05T13:56:33.052Z,97157.39
2018-11-05T14:01:36.254Z,97162.97
2018-11-05T14:06:39.454Z,97164.28
2018-11-05T14:11:42.699Z,97163.13
2018-11-05T14:16:45.938Z,97168.95
2018-11-05T14:21:49.173Z,97163.66
2018-11-05T14:26:52.454Z,97162.01
2018-11-05T14:31:55.661Z,97166.98
2018-11-05T14:36:59.115Z,97161.59
2018-11-05T14:42:02.129Z,97170.63
2018-11-05T14:47:05.360Z,97178.09
2018-11-05T14:52:08.596Z,97167.12
2018-11-05T14:57:12.135Z,97161.50
2018-11-05T15:02:21.058Z,97167.53
2018-11-05T15:07:24.275Z,97167.40
2018-11-05T15:12:27.518Z,97190.45
2018-11-05T15:17:30.767Z,97183.14
2018-11-05T15:22:34.025Z,97186.25
2018-11-05T15:27:38.040Z,97183.98
2018-11-05T15:32:41.576Z,97175.47
2018-11-05T15:37:44.976Z,97178.77
2018-11-05T15:42:48.288Z,97172.26
2018-11-05T15:47:51.516Z,97174.66
2018-11-05T15:52:55.277Z,97173.41
2018-11-05T15:57:58.126Z,97179.76
2018-11-05T16:03:01.823Z,97180.83
2018-11-05T16:08:05.553Z,97188.44
2018-11-05T16:13:08.756Z,97196.09
2018-11-05T16:18:12.018Z,97210.52
2018-11-05T16:23:15.238Z,97217.34
2018-11-05T16:28:18.480Z,97216.38
2018-11-05T16:33:21.832Z,97216.58
2018-11-05T16:38:25.292Z,97226.15
2018-11-05T16:43:28.554Z,97228.59
2018-11-05T16:48:31.811Z,97236.41
2018-11-05T16:53:41.825Z,97234.98
2018-11-05T16:58:45.150Z,97238.41
2018-11-05T17:03:48.342Z,97243.83
2018-11-05T17:08:51.589Z,97246.80
2018-11-05T17:13:54.908Z,97247.83
2018-11-05T17:18:58.147Z,97247.03
2018-11-05T17:24:08.214Z,97244.88
2018-11-05T17:29:11.463Z,97259.84
2018-11-05T17:34:14.853Z,97260.38
2018-11-05T17:39:18.157Z,97269.33
2018-11-05T17:44:21.456Z,97282.22
2018-11-05T17:49:24.822Z,97283.69
2018-11-05T17:54:28.225Z,97281.31
2018-11-05T17:59:31.563Z,97296.05
2018-11-05T18:04:35.269Z,97290.55
2018-11-05T18:09:38.476Z,97288.03
2018-11-05T18:14:42.021Z,97298.43
2018-11-05T18:19:45.307Z,97299.11
2018-11-05T18:24:48.567Z,97307.09
2018-11-05T18:29:51.875Z,97304.41
2018-11-05T18:34:55.190Z,97305.86
2018-11-05T18:39:58.477Z,97302.08
2018-11-05T18:45:01.808Z,97300.09
2018-11-05T18:50:08.379Z,97307.19
2018-11-05T18:55:13.078Z,97310.22
2018-11-05T19:00:22.155Z,97308.49
2018-11-05T19:05:26.797Z,97316.81
2018-11-05T19:10:30.130Z,97304.77
2018-11-05T19:15:33.517Z,97321.36
2018-11-05T19:20:36.889Z,97308.85
2018-11-05T19:25:40.188Z,97317.84
2018-11-05T19:30:43.525Z,97318.59
2018-11-05T19:35:46.904Z,97324.09
2018-11-05T19:40:50.222Z,97323.58
2018-11-05T19:45:53.549Z,97334.16
2018-11-05T19:50:56.930Z,97335.78
2018-11-05T19:56:00.273Z,97326.85
2018-11-05T20:01:03.845Z,97330.35
2018-11-05T20:06:07.336Z,97339.48
2018-11-05T20:11:10.535Z,97335.45
2018-11-05T20:16:14.449Z,97340.72
2018-11-05T20:21:19.747Z,97338.38
2018-11-05T20:26:23.130Z,97344.19
2018-11-05T20:31:30.051Z,97338.66
2018-11-05T20:36:33.505Z,97333.14
2018-11-05T20:41:37.464Z,97340.75
2018-11-05T20:46:41.159Z,97344.41
2018-11-05T20:51:45.320Z,97343.91
2018-11-05T20:56:49.560Z,97340.91
2018-11-05T21:01:52.886Z,97338.30
2018-11-05T21:06:56.288Z,97341.95
2018-11-05T21:11:59.613Z,97342.55
2018-11-05T21:17:03.084Z,97333.05
2018-11-05T21:22:12.598Z,97334.63
2018-11-05T21:27:17.207Z,97330.91
2018-11-05T21:32:21.911Z,97339.89
2018-11-05T21:37:25.382Z,97336.75
2018-11-05T21:42:29.875Z,97335.83
2018-11-05T21:47:33.251Z,97342.14
2018-11-05T21:52:42.184Z,97336.58
2018-11-05T21:57:47.464Z,97337.97
2018-11-05T22:02:56.729Z,97348.03
2018-11-05T22:08:00.168Z,97335.07
2018-11-05T22:13:06.499Z,97339.98
2018-11-05T22:18:14.236Z,97335.75
2018-11-05T22:23:19.192Z,97334.66
2018-11-05T22:28:23.066Z,97337.67
2018-11-05T22:33:26.324Z,97336.66
2018-11-05T22:38:29.659Z,97336.66
2018-11-05T22:43:33.568Z,97333.73
2018-11-05T22:48:47.369Z,97332.84
2018-11-05T22:53:51.148Z,97330.30
2018-11-05T22:58:54.413Z,97330.13
2018-11-05T23:04:00.232Z,97332.71
2018-11-05T23:09:05.130Z,97336.45
2018-11-05T23:14:10.755Z,97342.66
2018-11-05T23:19:19.691Z,97339.83
2018-11-05T23:24:23.463Z,97336.02
2018-11-05T23:29:26.852Z,97338.69
2018-11-05T23:34:30.335Z,97334.37
2018-11-05T23:39:34.643Z,97331.94
2018-11-05T23:44:40.989Z,97329.55
2018-11-05T23:49:46.045Z,97325.30
2018-11-05T23:54:51.187Z,97323.94
2018-11-05T23:59:54.402Z,97338.99
